AFR66 LFPO-LFMP
Flight info
| Callsign | AFR66 |
|---|---|
| Flight time | 1h 7m |
| Altitude | 37000 |
| Route | ERIXU DCT ETAMO DCT ADEKA DCT MOKDI DCT MEN DCT BADAM DCT NEKTA DCT SIJAN |
| Aircraft | A319/M-SDE3FGHIRWY/LB1 |
Departure
| Time | 2026-04-11 06:34 |
|---|---|
| Airport | Paris-Orly Airport (LFPO) |
Arrival
| Time | 2026-04-11 07:41 |
|---|---|
| Airport | Perpignan-Rivesaltes (Llabanère) Airport (LFMP) |
| Time | Latitude | Longitude | Altitude | Speed | Heading |
|---|---|---|---|---|---|
| 2026-04-11 06:23 | 48.72551 | 2.36026 | 283 ft | 0 kts | 13° |
| 2026-04-11 06:27 | 48.72540 | 2.36022 | 285 ft | 3 kts | 13° |
| 2026-04-11 06:27 | 48.72521 | 2.36016 | 287 ft | 3 kts | 13° |
| 2026-04-11 06:28 | 48.72502 | 2.36012 | 286 ft | 3 kts | 338° |
| 2026-04-11 06:28 | 48.72487 | 2.36029 | 288 ft | 3 kts | 293° |
| 2026-04-11 06:28 | 48.72483 | 2.36055 | 286 ft | 1 kts | 253° |
| 2026-04-11 06:30 | 48.72483 | 2.36054 | 286 ft | 1 kts | 252° |
| 2026-04-11 06:30 | 48.72473 | 2.35995 | 286 ft | 10 kts | 261° |
| 2026-04-11 06:31 | 48.72477 | 2.35840 | 286 ft | 18 kts | 277° |
| 2026-04-11 06:31 | 48.72454 | 2.35647 | 286 ft | 21 kts | 233° |
| 2026-04-11 06:31 | 48.72312 | 2.35622 | 282 ft | 23 kts | 196° |
| 2026-04-11 06:31 | 48.72171 | 2.35617 | 285 ft | 16 kts | 168° |
| 2026-04-11 06:32 | 48.72126 | 2.35632 | 282 ft | 0 kts | 167° |
| 2026-04-11 06:32 | 48.72121 | 2.35634 | 285 ft | 2 kts | 167° |
| 2026-04-11 06:32 | 48.72087 | 2.35663 | 284 ft | 10 kts | 140° |
| 2026-04-11 06:32 | 48.72025 | 2.35761 | 283 ft | 18 kts | 122° |
| 2026-04-11 06:33 | 48.71963 | 2.35948 | 284 ft | 22 kts | 95° |
| 2026-04-11 06:33 | 48.72009 | 2.36225 | 285 ft | 39 kts | 75° |
| 2026-04-11 06:33 | 48.72126 | 2.36881 | 284 ft | 95 kts | 75° |
| 2026-04-11 06:33 | 48.72358 | 2.38131 | 287 ft | 150 kts | 74° |
| 2026-04-11 06:34 | 48.72662 | 2.39728 | 767 ft | 159 kts | 75° |
| 2026-04-11 06:34 | 48.72960 | 2.41336 | 1442 ft | 162 kts | 77° |
| 2026-04-11 06:34 | 48.73260 | 2.43067 | 1868 ft | 182 kts | 82° |
| 2026-04-11 06:34 | 48.73608 | 2.45048 | 2270 ft | 206 kts | 80° |
| 2026-04-11 06:35 | 48.74000 | 2.47266 | 2662 ft | 229 kts | 82° |
| 2026-04-11 06:35 | 48.74195 | 2.49744 | 3138 ft | 248 kts | 91° |
| 2026-04-11 06:35 | 48.74288 | 2.52432 | 3776 ft | 266 kts | 92° |
| 2026-04-11 06:35 | 48.74342 | 2.55319 | 4576 ft | 280 kts | 95° |
| 2026-04-11 06:36 | 48.73822 | 2.58111 | 5434 ft | 275 kts | 129° |
| 2026-04-11 06:36 | 48.72415 | 2.59923 | 6399 ft | 265 kts | 161° |
| 2026-04-11 06:36 | 48.70673 | 2.60772 | 7385 ft | 263 kts | 172° |
| 2026-04-11 06:36 | 48.68898 | 2.61353 | 8326 ft | 266 kts | 175° |
| 2026-04-11 06:37 | 48.67062 | 2.61863 | 9267 ft | 269 kts | 179° |
| 2026-04-11 06:37 | 48.65217 | 2.61690 | 10147 ft | 266 kts | 198° |
| 2026-04-11 06:37 | 48.63487 | 2.60696 | 10859 ft | 272 kts | 212° |
| 2026-04-11 06:37 | 48.61959 | 2.58847 | 11168 ft | 292 kts | 230° |
| 2026-04-11 06:38 | 48.60629 | 2.56434 | 11565 ft | 309 kts | 232° |
| 2026-04-11 06:38 | 48.59246 | 2.53897 | 12270 ft | 316 kts | 232° |
| 2026-04-11 06:38 | 48.57834 | 2.51318 | 13023 ft | 321 kts | 232° |
| 2026-04-11 06:38 | 48.56401 | 2.48716 | 13777 ft | 325 kts | 232° |
| 2026-04-11 06:39 | 48.54937 | 2.46068 | 14468 ft | 329 kts | 232° |
| 2026-04-11 06:39 | 48.53457 | 2.43405 | 15198 ft | 332 kts | 231° |
| 2026-04-11 06:39 | 48.51755 | 2.41029 | 15918 ft | 337 kts | 219° |
| 2026-04-11 06:39 | 48.49750 | 2.39144 | 16663 ft | 341 kts | 213° |
| 2026-04-11 06:40 | 48.47691 | 2.37335 | 17409 ft | 343 kts | 214° |
| 2026-04-11 06:40 | 48.45619 | 2.35508 | 18146 ft | 346 kts | 214° |
| 2026-04-11 06:40 | 48.43538 | 2.33667 | 18786 ft | 348 kts | 214° |
| 2026-04-11 06:40 | 48.41447 | 2.31817 | 19435 ft | 350 kts | 214° |
| 2026-04-11 06:41 | 48.39368 | 2.29975 | 20083 ft | 352 kts | 214° |
| 2026-04-11 06:41 | 48.37248 | 2.28105 | 20732 ft | 354 kts | 214° |
| 2026-04-11 06:41 | 48.35110 | 2.26228 | 21371 ft | 356 kts | 214° |
| 2026-04-11 06:41 | 48.32962 | 2.24348 | 21980 ft | 359 kts | 214° |
| 2026-04-11 06:42 | 48.30685 | 2.22737 | 22551 ft | 367 kts | 203° |
| 2026-04-11 06:42 | 48.28130 | 2.22070 | 23111 ft | 382 kts | 187° |
| 2026-04-11 06:42 | 48.25446 | 2.22520 | 23619 ft | 392 kts | 177° |
| 2026-04-11 06:42 | 48.22746 | 2.23222 | 24086 ft | 395 kts | 176° |
| 2026-04-11 06:43 | 48.20055 | 2.23962 | 24550 ft | 398 kts | 176° |
| 2026-04-11 06:43 | 48.17294 | 2.24741 | 25005 ft | 400 kts | 175° |
| 2026-04-11 06:43 | 48.14545 | 2.25519 | 25462 ft | 402 kts | 175° |
| 2026-04-11 06:43 | 48.11817 | 2.26286 | 25901 ft | 404 kts | 175° |
| 2026-04-11 06:44 | 48.09047 | 2.27059 | 26350 ft | 407 kts | 175° |
| 2026-04-11 06:44 | 48.06258 | 2.27826 | 26794 ft | 409 kts | 175° |
| 2026-04-11 06:44 | 48.03451 | 2.28588 | 27229 ft | 411 kts | 175° |
| 2026-04-11 06:44 | 48.00629 | 2.29348 | 27662 ft | 413 kts | 175° |
| 2026-04-11 06:45 | 47.97783 | 2.30115 | 28090 ft | 415 kts | 175° |
| 2026-04-11 06:45 | 47.94926 | 2.30885 | 28506 ft | 418 kts | 175° |
| 2026-04-11 06:45 | 47.92103 | 2.31651 | 28901 ft | 420 kts | 175° |
| 2026-04-11 06:45 | 47.89156 | 2.32455 | 29308 ft | 423 kts | 175° |
| 2026-04-11 06:46 | 47.86293 | 2.33235 | 29686 ft | 425 kts | 175° |
| 2026-04-11 06:46 | 47.83378 | 2.34025 | 30041 ft | 427 kts | 174° |
| 2026-04-11 06:46 | 47.80445 | 2.34818 | 30352 ft | 429 kts | 174° |
| 2026-04-11 06:46 | 47.77508 | 2.35610 | 30672 ft | 431 kts | 174° |
| 2026-04-11 06:47 | 47.74566 | 2.36404 | 30973 ft | 432 kts | 174° |
| 2026-04-11 06:47 | 47.72578 | 2.36941 | 31189 ft | 433 kts | 174° |
| 2026-04-11 06:47 | 47.69614 | 2.37742 | 31628 ft | 431 kts | 174° |
| 2026-04-11 06:47 | 47.66667 | 2.38537 | 32084 ft | 430 kts | 174° |
| 2026-04-11 06:48 | 47.63730 | 2.39328 | 32535 ft | 428 kts | 174° |
| 2026-04-11 06:48 | 47.60807 | 2.40120 | 32991 ft | 427 kts | 174° |
| 2026-04-11 06:48 | 47.57886 | 2.40913 | 33440 ft | 425 kts | 174° |
| 2026-04-11 06:48 | 47.54974 | 2.41696 | 33889 ft | 424 kts | 174° |
| 2026-04-11 06:49 | 47.52073 | 2.42467 | 34276 ft | 423 kts | 174° |
| 2026-04-11 06:49 | 47.49164 | 2.43237 | 34662 ft | 423 kts | 174° |
| 2026-04-11 06:49 | 47.46272 | 2.44002 | 35043 ft | 422 kts | 174° |
| 2026-04-11 06:49 | 47.43383 | 2.44770 | 35415 ft | 421 kts | 174° |
| 2026-04-11 06:50 | 47.40498 | 2.45540 | 35781 ft | 421 kts | 174° |
| 2026-04-11 06:50 | 47.37617 | 2.46310 | 36147 ft | 420 kts | 173° |
| 2026-04-11 06:50 | 47.34745 | 2.47076 | 36501 ft | 420 kts | 173° |
| 2026-04-11 06:50 | 47.31868 | 2.47839 | 36804 ft | 420 kts | 173° |
| 2026-04-11 06:51 | 47.28999 | 2.48597 | 36868 ft | 418 kts | 173° |
| 2026-04-11 06:51 | 47.23274 | 2.50113 | 36867 ft | 417 kts | 173° |
| 2026-04-11 06:52 | 47.17552 | 2.51633 | 36863 ft | 418 kts | 173° |
| 2026-04-11 06:52 | 47.11891 | 2.53120 | 36864 ft | 418 kts | 173° |
| 2026-04-11 06:53 | 47.06158 | 2.54621 | 36864 ft | 419 kts | 173° |
| 2026-04-11 06:53 | 47.00418 | 2.56127 | 36856 ft | 419 kts | 173° |
| 2026-04-11 06:54 | 46.94675 | 2.57635 | 36854 ft | 419 kts | 173° |
| 2026-04-11 06:54 | 46.88928 | 2.59144 | 36854 ft | 419 kts | 173° |
| 2026-04-11 06:55 | 46.83183 | 2.60645 | 36860 ft | 419 kts | 173° |
| 2026-04-11 06:55 | 46.77474 | 2.62132 | 36866 ft | 419 kts | 173° |
| 2026-04-11 06:56 | 46.71754 | 2.63617 | 36873 ft | 419 kts | 173° |
| 2026-04-11 06:56 | 46.66009 | 2.65094 | 36877 ft | 419 kts | 173° |
| 2026-04-11 06:57 | 46.60273 | 2.66573 | 36879 ft | 419 kts | 173° |
| 2026-04-11 06:57 | 46.54534 | 2.68052 | 36891 ft | 418 kts | 173° |
| 2026-04-11 06:58 | 46.48839 | 2.69524 | 36893 ft | 418 kts | 173° |
| 2026-04-11 06:58 | 46.43117 | 2.70995 | 36894 ft | 418 kts | 173° |
| 2026-04-11 06:59 | 46.37391 | 2.72462 | 36890 ft | 417 kts | 173° |
| 2026-04-11 06:59 | 46.31673 | 2.73917 | 36897 ft | 417 kts | 173° |
| 2026-04-11 07:00 | 46.25953 | 2.75376 | 36896 ft | 417 kts | 172° |
| 2026-04-11 07:00 | 46.20234 | 2.76847 | 36886 ft | 417 kts | 172° |
| 2026-04-11 07:01 | 46.14539 | 2.78292 | 36890 ft | 418 kts | 172° |
| 2026-04-11 07:01 | 46.08801 | 2.79738 | 36892 ft | 419 kts | 172° |
| 2026-04-11 07:02 | 46.03057 | 2.81195 | 36899 ft | 419 kts | 172° |
| 2026-04-11 07:02 | 45.97311 | 2.82655 | 36903 ft | 420 kts | 172° |
| 2026-04-11 07:03 | 45.91561 | 2.84103 | 36909 ft | 420 kts | 172° |
| 2026-04-11 07:03 | 45.85805 | 2.85550 | 36913 ft | 420 kts | 172° |
| 2026-04-11 07:04 | 45.80043 | 2.86985 | 36913 ft | 420 kts | 172° |
| 2026-04-11 07:04 | 45.74288 | 2.88430 | 36915 ft | 420 kts | 172° |
| 2026-04-11 07:05 | 45.68564 | 2.89863 | 36915 ft | 419 kts | 172° |
| 2026-04-11 07:05 | 45.62871 | 2.91286 | 36914 ft | 419 kts | 172° |
| 2026-04-11 07:06 | 45.57125 | 2.92713 | 36916 ft | 419 kts | 171° |
| 2026-04-11 07:06 | 45.51369 | 2.94138 | 36915 ft | 419 kts | 171° |
| 2026-04-11 07:07 | 45.45616 | 2.95566 | 36918 ft | 420 kts | 171° |
| 2026-04-11 07:07 | 45.39856 | 2.96995 | 36920 ft | 420 kts | 171° |
| 2026-04-11 07:08 | 45.34086 | 2.98416 | 36928 ft | 421 kts | 171° |
| 2026-04-11 07:08 | 45.28309 | 2.99837 | 36943 ft | 421 kts | 171° |
| 2026-04-11 07:09 | 45.22579 | 3.01246 | 36950 ft | 421 kts | 171° |
| 2026-04-11 07:09 | 45.16813 | 3.02663 | 36956 ft | 421 kts | 171° |
| 2026-04-11 07:10 | 45.08183 | 3.04778 | 36961 ft | 421 kts | 171° |
| 2026-04-11 07:10 | 45.02408 | 3.06190 | 36966 ft | 420 kts | 171° |
| 2026-04-11 07:11 | 44.96633 | 3.07591 | 36964 ft | 420 kts | 171° |
| 2026-04-11 07:11 | 44.90881 | 3.08989 | 36968 ft | 420 kts | 171° |
| 2026-04-11 07:12 | 44.85130 | 3.10384 | 36966 ft | 420 kts | 171° |
| 2026-04-11 07:12 | 44.79410 | 3.11770 | 36970 ft | 420 kts | 172° |
| 2026-04-11 07:13 | 44.73652 | 3.13155 | 36971 ft | 420 kts | 172° |
| 2026-04-11 07:13 | 44.67930 | 3.14529 | 36967 ft | 420 kts | 172° |
| 2026-04-11 07:14 | 44.62163 | 3.15916 | 36962 ft | 420 kts | 172° |
| 2026-04-11 07:14 | 44.56341 | 3.16310 | 36963 ft | 418 kts | 180° |
| 2026-04-11 07:15 | 44.50511 | 3.16403 | 36964 ft | 419 kts | 180° |
| 2026-04-11 07:15 | 44.44677 | 3.16495 | 36961 ft | 419 kts | 180° |
| 2026-04-11 07:16 | 44.38840 | 3.16590 | 36962 ft | 419 kts | 180° |
| 2026-04-11 07:16 | 44.33035 | 3.16681 | 36961 ft | 420 kts | 180° |
| 2026-04-11 07:17 | 44.27196 | 3.16771 | 36962 ft | 420 kts | 180° |
| 2026-04-11 07:17 | 44.21350 | 3.16860 | 36956 ft | 420 kts | 180° |
| 2026-04-11 07:18 | 44.15504 | 3.16952 | 36953 ft | 420 kts | 180° |
| 2026-04-11 07:18 | 44.09652 | 3.16910 | 36956 ft | 420 kts | 186° |
| 2026-04-11 07:19 | 44.03975 | 3.15042 | 36638 ft | 420 kts | 197° |
| 2026-04-11 07:19 | 44.01184 | 3.13824 | 36275 ft | 420 kts | 197° |
| 2026-04-11 07:19 | 43.98378 | 3.12599 | 35550 ft | 424 kts | 198° |
| 2026-04-11 07:20 | 43.95551 | 3.11367 | 34795 ft | 428 kts | 198° |
| 2026-04-11 07:20 | 43.92699 | 3.10124 | 34024 ft | 431 kts | 198° |
| 2026-04-11 07:20 | 43.89884 | 3.08901 | 33058 ft | 436 kts | 198° |
| 2026-04-11 07:20 | 43.86921 | 3.07619 | 32120 ft | 439 kts | 198° |
| 2026-04-11 07:21 | 43.84029 | 3.06368 | 31160 ft | 442 kts | 198° |
| 2026-04-11 07:21 | 43.81053 | 3.05083 | 30453 ft | 440 kts | 198° |
| 2026-04-11 07:21 | 43.78193 | 3.03850 | 29910 ft | 433 kts | 199° |
| 2026-04-11 07:21 | 43.75275 | 3.02677 | 29234 ft | 429 kts | 194° |
| 2026-04-11 07:22 | 43.72340 | 3.02054 | 28629 ft | 425 kts | 188° |
| 2026-04-11 07:22 | 43.69423 | 3.01590 | 28008 ft | 420 kts | 188° |
| 2026-04-11 07:22 | 43.66593 | 3.01142 | 27423 ft | 415 kts | 188° |
| 2026-04-11 07:22 | 43.63737 | 3.00691 | 26834 ft | 410 kts | 189° |
| 2026-04-11 07:23 | 43.60920 | 3.00244 | 26254 ft | 406 kts | 189° |
| 2026-04-11 07:23 | 43.58139 | 2.99797 | 25682 ft | 402 kts | 189° |
| 2026-04-11 07:23 | 43.55367 | 2.99349 | 25114 ft | 398 kts | 189° |
| 2026-04-11 07:23 | 43.52626 | 2.98908 | 24566 ft | 395 kts | 189° |
| 2026-04-11 07:24 | 43.49899 | 2.98470 | 24027 ft | 392 kts | 189° |
| 2026-04-11 07:24 | 43.47198 | 2.98037 | 23504 ft | 390 kts | 189° |
| 2026-04-11 07:24 | 43.44508 | 2.97610 | 22938 ft | 387 kts | 189° |
| 2026-04-11 07:24 | 43.41848 | 2.97189 | 22452 ft | 383 kts | 189° |
| 2026-04-11 07:25 | 43.39219 | 2.96774 | 21958 ft | 379 kts | 189° |
| 2026-04-11 07:25 | 43.36617 | 2.96365 | 21493 ft | 374 kts | 189° |
| 2026-04-11 07:25 | 43.34048 | 2.95961 | 21027 ft | 370 kts | 189° |
| 2026-04-11 07:25 | 43.31500 | 2.95556 | 20547 ft | 366 kts | 189° |
| 2026-04-11 07:26 | 43.28982 | 2.95156 | 20074 ft | 362 kts | 189° |
| 2026-04-11 07:26 | 43.26487 | 2.94762 | 19583 ft | 359 kts | 189° |
| 2026-04-11 07:26 | 43.24020 | 2.94373 | 19096 ft | 356 kts | 189° |
| 2026-04-11 07:26 | 43.21597 | 2.94002 | 18602 ft | 355 kts | 187° |
| 2026-04-11 07:27 | 43.19218 | 2.94034 | 18086 ft | 357 kts | 176° |
| 2026-04-11 07:27 | 43.16742 | 2.94695 | 17504 ft | 357 kts | 169° |
| 2026-04-11 07:27 | 43.14336 | 2.95491 | 17005 ft | 354 kts | 169° |
| 2026-04-11 07:27 | 43.11984 | 2.96263 | 16497 ft | 351 kts | 169° |
| 2026-04-11 07:28 | 43.09610 | 2.97039 | 15951 ft | 350 kts | 169° |
| 2026-04-11 07:28 | 43.07242 | 2.97813 | 15422 ft | 348 kts | 169° |
| 2026-04-11 07:28 | 43.04898 | 2.98583 | 14891 ft | 346 kts | 169° |
| 2026-04-11 07:28 | 43.02558 | 2.99352 | 14356 ft | 345 kts | 169° |
| 2026-04-11 07:29 | 43.00233 | 3.00110 | 13911 ft | 342 kts | 169° |
| 2026-04-11 07:29 | 42.97961 | 3.00853 | 13795 ft | 328 kts | 169° |
| 2026-04-11 07:29 | 42.95785 | 3.01570 | 13662 ft | 316 kts | 169° |
| 2026-04-11 07:29 | 42.93679 | 3.02262 | 13526 ft | 305 kts | 169° |
| 2026-04-11 07:30 | 42.91646 | 3.02865 | 13389 ft | 293 kts | 176° |
| 2026-04-11 07:30 | 42.89697 | 3.02526 | 13256 ft | 277 kts | 205° |
| 2026-04-11 07:30 | 42.88171 | 3.01069 | 13117 ft | 264 kts | 231° |
| 2026-04-11 07:30 | 42.87320 | 2.98949 | 12832 ft | 257 kts | 256° |
| 2026-04-11 07:31 | 42.87235 | 2.96516 | 12313 ft | 256 kts | 281° |
| 2026-04-11 07:31 | 42.87938 | 2.94301 | 11827 ft | 259 kts | 306° |
| 2026-04-11 07:31 | 42.89276 | 2.92695 | 11409 ft | 263 kts | 330° |
| 2026-04-11 07:31 | 42.91070 | 2.92035 | 11086 ft | 268 kts | 355° |
| 2026-04-11 07:32 | 42.92916 | 2.91968 | 10692 ft | 269 kts | 353° |
| 2026-04-11 07:32 | 42.94700 | 2.91405 | 10348 ft | 260 kts | 336° |
| 2026-04-11 07:32 | 42.96269 | 2.90220 | 9883 ft | 257 kts | 321° |
| 2026-04-11 07:32 | 42.97527 | 2.88519 | 9425 ft | 253 kts | 307° |
| 2026-04-11 07:33 | 42.98630 | 2.86657 | 9004 ft | 252 kts | 307° |
| 2026-04-11 07:33 | 42.99742 | 2.84786 | 8703 ft | 253 kts | 308° |
| 2026-04-11 07:33 | 43.00853 | 2.82919 | 8273 ft | 253 kts | 308° |
| 2026-04-11 07:33 | 43.01959 | 2.81058 | 7872 ft | 251 kts | 307° |
| 2026-04-11 07:34 | 43.02569 | 2.79702 | 7592 ft | 247 kts | 290° |
| 2026-04-11 07:34 | 43.02872 | 2.77436 | 7200 ft | 242 kts | 265° |
| 2026-04-11 07:34 | 43.02448 | 2.75243 | 6749 ft | 244 kts | 241° |
| 2026-04-11 07:34 | 43.01561 | 2.73272 | 6432 ft | 239 kts | 236° |
| 2026-04-11 07:35 | 43.00705 | 2.71409 | 6371 ft | 224 kts | 237° |
| 2026-04-11 07:35 | 42.99902 | 2.69652 | 6281 ft | 216 kts | 237° |
| 2026-04-11 07:35 | 42.98934 | 2.68131 | 6183 ft | 212 kts | 209° |
| 2026-04-11 07:35 | 42.97521 | 2.67754 | 5983 ft | 213 kts | 169° |
| 2026-04-11 07:36 | 42.96179 | 2.68628 | 5620 ft | 216 kts | 148° |
| 2026-04-11 07:36 | 42.94902 | 2.69724 | 5298 ft | 218 kts | 149° |
| 2026-04-11 07:36 | 42.93608 | 2.70829 | 4963 ft | 221 kts | 149° |
| 2026-04-11 07:36 | 42.92287 | 2.71952 | 4619 ft | 226 kts | 149° |
| 2026-04-11 07:37 | 42.90956 | 2.73083 | 4262 ft | 225 kts | 149° |
| 2026-04-11 07:37 | 42.89627 | 2.74212 | 3921 ft | 225 kts | 149° |
| 2026-04-11 07:37 | 42.88295 | 2.75342 | 3552 ft | 222 kts | 149° |
| 2026-04-11 07:37 | 42.87019 | 2.76422 | 3226 ft | 211 kts | 149° |
| 2026-04-11 07:38 | 42.85799 | 2.77451 | 2929 ft | 200 kts | 148° |
| 2026-04-11 07:38 | 42.84654 | 2.78415 | 2614 ft | 189 kts | 148° |
| 2026-04-11 07:38 | 42.83568 | 2.79327 | 2322 ft | 177 kts | 148° |
| 2026-04-11 07:38 | 42.82575 | 2.80160 | 2060 ft | 156 kts | 148° |
| 2026-04-11 07:39 | 42.81698 | 2.80895 | 1834 ft | 142 kts | 147° |
| 2026-04-11 07:39 | 42.80889 | 2.81574 | 1602 ft | 133 kts | 147° |
| 2026-04-11 07:39 | 42.80109 | 2.82228 | 1374 ft | 131 kts | 147° |
| 2026-04-11 07:39 | 42.79337 | 2.82868 | 1225 ft | 129 kts | 147° |
| 2026-04-11 07:40 | 42.78568 | 2.83512 | 1044 ft | 130 kts | 147° |
| 2026-04-11 07:40 | 42.77801 | 2.84160 | 793 ft | 129 kts | 146° |
| 2026-04-11 07:40 | 42.77041 | 2.84808 | 624 ft | 130 kts | 146° |
| 2026-04-11 07:40 | 42.76268 | 2.85449 | 422 ft | 130 kts | 146° |
| 2026-04-11 07:41 | 42.75499 | 2.86098 | 226 ft | 130 kts | 146° |
| 2026-04-11 07:41 | 42.74752 | 2.86745 | 142 ft | 119 kts | 147° |
| 2026-04-11 07:41 | 42.74210 | 2.87194 | 143 ft | 50 kts | 149° |
| 2026-04-11 07:41 | 42.74064 | 2.87162 | 142 ft | 24 kts | 222° |
| 2026-04-11 07:42 | 42.73950 | 2.87064 | 146 ft | 0 kts | 171° |